createdAt,value
2023-05-21T00:00:00.669Z,2.90
2023-05-21T00:01:00.701Z,3.20
2023-05-21T00:02:01.121Z,2.70
2023-05-21T00:03:00.791Z,3.20
2023-05-21T00:04:00.750Z,2.90
2023-05-21T00:05:00.624Z,2.60
2023-05-21T00:06:00.639Z,2.60
2023-05-21T00:07:00.628Z,2.90
2023-05-21T00:08:00.989Z,2.80
2023-05-21T00:09:00.609Z,3.00
2023-05-21T00:10:00.583Z,3.00
2023-05-21T00:11:00.569Z,3.90
2023-05-21T00:12:00.560Z,2.60
2023-05-21T00:13:00.572Z,2.90
2023-05-21T00:14:00.532Z,3.00
2023-05-21T00:15:00.546Z,2.80
2023-05-21T00:16:00.516Z,2.20
2023-05-21T00:17:00.741Z,2.30
2023-05-21T00:18:00.522Z,2.50
2023-05-21T00:19:00.552Z,2.60
2023-05-21T00:20:00.683Z,2.50
2023-05-21T00:21:00.472Z,2.60
2023-05-21T00:22:00.417Z,2.60
2023-05-21T00:23:00.469Z,2.60
2023-05-21T00:24:00.409Z,2.50
2023-05-21T00:25:00.409Z,2.80
2023-05-21T00:26:00.982Z,2.30
2023-05-21T00:27:00.382Z,2.80
2023-05-21T00:28:00.390Z,2.70
2023-05-21T00:29:00.404Z,2.70
2023-05-21T00:30:01.064Z,2.40
2023-05-21T00:31:00.353Z,2.50
2023-05-21T00:32:00.383Z,2.90
2023-05-21T00:33:01.212Z,2.60
2023-05-21T00:34:00.285Z,2.50
2023-05-21T00:35:00.297Z,2.60
2023-05-21T00:36:01.228Z,2.60
2023-05-21T00:37:00.706Z,2.90
2023-05-21T00:38:00.268Z,2.80
2023-05-21T00:39:00.251Z,2.50
2023-05-21T00:40:00.291Z,2.90
2023-05-21T00:41:00.511Z,2.50
2023-05-21T00:42:01.156Z,2.80
2023-05-21T00:43:00.221Z,2.30
2023-05-21T00:44:00.192Z,2.50
2023-05-21T00:45:00.238Z,2.70
2023-05-21T00:46:00.257Z,2.40
2023-05-21T00:47:00.163Z,2.60
2023-05-21T00:48:00.171Z,2.70
2023-05-21T00:49:00.137Z,2.30
2023-05-21T00:50:00.174Z,2.60
2023-05-21T00:51:00.139Z,2.60
2023-05-21T00:52:00.125Z,2.30
2023-05-21T00:53:00.134Z,3.00
2023-05-21T00:54:00.061Z,2.80
2023-05-21T00:55:00.086Z,2.70
2023-05-21T00:56:00.051Z,2.40
2023-05-21T00:57:00.108Z,2.60
2023-05-21T00:58:00.055Z,2.30
2023-05-21T00:59:00.044Z,2.40
2023-05-21T01:00:00.075Z,2.50
2023-05-21T01:01:00.026Z,2.60
2023-05-21T01:02:00.000Z,3.10
2023-05-21T01:03:00.084Z,2.50
2023-05-21T01:03:59.934Z,2.60
2023-05-21T01:04:59.976Z,2.90
2023-05-21T01:06:00.391Z,2.60
2023-05-21T01:06:59.920Z,2.90
2023-05-21T01:07:59.892Z,2.80
2023-05-21T01:08:59.905Z,2.50
2023-05-21T01:09:59.903Z,2.80
2023-05-21T01:10:59.879Z,2.60
2023-05-21T01:11:59.873Z,3.50
2023-05-21T01:12:59.882Z,2.60
2023-05-21T01:13:59.850Z,2.90
2023-05-21T01:14:59.826Z,2.80
2023-05-21T01:16:00.174Z,2.40
2023-05-21T01:16:59.850Z,2.50
2023-05-21T01:17:59.830Z,2.40
2023-05-21T01:18:59.980Z,2.30
2023-05-21T01:19:59.757Z,2.90
2023-05-21T01:20:59.919Z,2.50
2023-05-21T01:21:59.739Z,2.50
2023-05-21T01:22:59.814Z,2.80
2023-05-21T01:24:00.178Z,2.90
2023-05-21T01:24:59.724Z,3.10
2023-05-21T01:25:59.689Z,2.90
2023-05-21T01:26:59.718Z,2.60
2023-05-21T01:27:59.665Z,2.50
2023-05-21T01:28:59.668Z,2.60
2023-05-21T01:30:00.232Z,2.90
2023-05-21T01:30:59.649Z,2.50
2023-05-21T01:31:59.638Z,2.50
2023-05-21T01:32:59.692Z,2.40
2023-05-21T01:33:59.678Z,2.50
2023-05-21T01:34:59.609Z,2.20
2023-05-21T01:35:59.572Z,2.50
2023-05-21T01:37:00.194Z,2.80
2023-05-21T01:37:59.924Z,3.00
2023-05-21T01:38:59.554Z,3.00
2023-05-21T01:40:00.188Z,3.50
2023-05-21T01:40:59.520Z,2.80
2023-05-21T01:41:59.536Z,2.60
2023-05-21T01:42:59.523Z,2.40
2023-05-21T01:43:59.491Z,3.10
2023-05-21T01:44:59.655Z,2.40
2023-05-21T01:45:59.490Z,2.40
2023-05-21T01:46:59.493Z,2.70
2023-05-21T01:47:59.570Z,2.40
2023-05-21T01:48:59.580Z,2.50
2023-05-21T01:49:59.423Z,2.30
2023-05-21T01:50:59.429Z,2.40
2023-05-21T01:51:59.664Z,2.80
2023-05-21T01:52:59.705Z,2.90
2023-05-21T01:53:59.393Z,2.70
2023-05-21T01:54:59.453Z,2.90
2023-05-21T01:55:59.464Z,2.40
2023-05-21T01:56:59.409Z,2.90
2023-05-21T01:58:01.801Z,2.70
2023-05-21T01:58:59.614Z,2.80
2023-05-21T01:59:59.319Z,2.70
2023-05-21T02:00:59.605Z,2.50
2023-05-21T02:01:59.666Z,2.50
2023-05-21T02:02:59.812Z,2.60
2023-05-21T02:03:59.806Z,2.50
2023-05-21T02:04:59.262Z,3.10
2023-05-21T02:05:59.247Z,2.90
2023-05-21T02:06:59.762Z,2.90
2023-05-21T02:07:59.216Z,2.30
2023-05-21T02:08:59.235Z,2.70
2023-05-21T02:09:59.394Z,2.30
2023-05-21T02:10:59.204Z,2.90
2023-05-21T02:11:59.224Z,2.70
2023-05-21T02:12:59.231Z,2.50
2023-05-21T02:13:59.158Z,2.80
2023-05-21T02:14:59.161Z,2.60
2023-05-21T02:15:59.802Z,2.90
2023-05-21T02:16:59.233Z,2.60
2023-05-21T02:18:00.175Z,3.00
2023-05-21T02:18:59.740Z,3.90
2023-05-21T02:19:59.184Z,2.80
2023-05-21T02:20:59.096Z,3.30
2023-05-21T02:21:59.084Z,3.40
2023-05-21T02:22:59.096Z,3.10
2023-05-21T02:23:59.330Z,2.60
2023-05-21T02:24:59.254Z,2.50
2023-05-21T02:26:00.116Z,2.60
2023-05-21T02:26:59.026Z,2.70
2023-05-21T02:27:59.237Z,2.30
2023-05-21T02:28:59.261Z,2.90
2023-05-21T02:29:58.985Z,2.70
2023-05-21T02:30:59.802Z,2.80
2023-05-21T02:32:00.067Z,2.60
2023-05-21T02:32:59.101Z,2.80
2023-05-21T02:33:58.997Z,2.60
2023-05-21T02:34:58.972Z,2.50
2023-05-21T02:35:59.016Z,2.50
2023-05-21T02:36:59.033Z,3.20
2023-05-21T02:37:59.067Z,3.00
2023-05-21T02:38:59.092Z,2.70
2023-05-21T02:39:59.116Z,2.50
2023-05-21T02:40:59.128Z,2.40
2023-05-21T02:41:59.183Z,3.20
2023-05-21T02:42:59.217Z,2.90
2023-05-21T02:43:59.259Z,3.00
2023-05-21T02:44:58.814Z,2.70
2023-05-21T02:45:58.879Z,3.20
2023-05-21T02:46:58.866Z,2.90
2023-05-21T02:47:58.917Z,2.90
2023-05-21T02:48:58.817Z,2.60
2023-05-21T02:49:58.945Z,4.00
2023-05-21T02:50:58.754Z,3.20
2023-05-21T02:51:58.995Z,3.50
2023-05-21T02:52:58.710Z,2.60
2023-05-21T02:53:58.732Z,3.30
2023-05-21T02:54:59.063Z,3.10
2023-05-21T02:55:59.093Z,2.80
2023-05-21T02:56:59.134Z,3.30
2023-05-21T02:57:59.149Z,2.80
2023-05-21T02:58:59.195Z,2.60
2023-05-21T02:59:59.209Z,3.20
2023-05-21T03:00:59.249Z,3.20
2023-05-21T03:01:59.291Z,2.90
2023-05-21T03:02:58.750Z,3.00
2023-05-21T03:03:58.882Z,4.20
2023-05-21T03:04:59.265Z,2.60
2023-05-21T03:05:58.611Z,3.10
2023-05-21T03:06:59.256Z,3.10
2023-05-21T03:07:59.278Z,3.20
2023-05-21T03:08:58.526Z,3.20
2023-05-21T03:09:58.550Z,3.30
2023-05-21T03:10:58.781Z,2.70
2023-05-21T03:11:59.258Z,3.30
2023-05-21T03:12:58.645Z,3.00
2023-05-21T03:13:59.280Z,2.70
2023-05-21T03:14:59.274Z,3.10
2023-05-21T03:15:58.563Z,2.90
2023-05-21T03:16:59.387Z,2.60
2023-05-21T03:17:59.244Z,2.70
2023-05-21T03:18:58.999Z,2.90
2023-05-21T03:19:59.296Z,2.90
2023-05-21T03:20:58.904Z,3.00
2023-05-21T03:21:58.403Z,3.10
2023-05-21T03:22:58.404Z,3.00
2023-05-21T03:23:58.450Z,3.10
2023-05-21T03:24:58.478Z,2.90
2023-05-21T03:25:58.499Z,3.30
2023-05-21T03:26:58.328Z,3.40
2023-05-21T03:27:58.562Z,3.50
2023-05-21T03:28:58.314Z,2.90
2023-05-21T03:29:58.294Z,3.20
2023-05-21T03:30:58.295Z,3.20
2023-05-21T03:31:58.367Z,3.10
2023-05-21T03:32:58.294Z,3.30
2023-05-21T03:33:58.345Z,3.20
2023-05-21T03:34:58.288Z,3.20
2023-05-21T03:35:58.238Z,3.50
2023-05-21T03:36:58.242Z,3.00
2023-05-21T03:37:58.269Z,3.30
2023-05-21T03:38:58.189Z,3.30
2023-05-21T03:39:58.304Z,3.30
2023-05-21T03:40:58.296Z,3.50
2023-05-21T03:41:58.185Z,3.30
2023-05-21T03:42:58.155Z,3.60
2023-05-21T03:43:58.311Z,3.10
2023-05-21T03:44:58.294Z,2.90
2023-05-21T03:45:58.363Z,3.10
2023-05-21T03:46:58.262Z,3.80
2023-05-21T03:47:58.343Z,3.10
2023-05-21T03:48:58.105Z,3.10
2023-05-21T03:49:58.320Z,3.50
2023-05-21T03:50:58.058Z,3.10
2023-05-21T03:51:58.310Z,3.30
2023-05-21T03:52:58.308Z,3.60
2023-05-21T03:53:58.051Z,3.30
2023-05-21T03:54:58.037Z,3.10
2023-05-21T03:55:58.323Z,3.90
2023-05-21T03:56:57.976Z,3.30
2023-05-21T03:57:58.003Z,3.60
2023-05-21T03:58:58.122Z,2.90
2023-05-21T03:59:58.317Z,3.10
2023-05-21T04:00:58.334Z,3.30
2023-05-21T04:01:58.319Z,2.80
2023-05-21T04:02:58.452Z,3.60
2023-05-21T04:03:58.112Z,2.90
2023-05-21T04:04:57.929Z,3.50
2023-05-21T04:05:58.324Z,3.50
2023-05-21T04:06:57.876Z,3.30
2023-05-21T04:07:58.323Z,3.30
2023-05-21T04:08:58.104Z,3.50
2023-05-21T04:09:58.334Z,3.40
2023-05-21T04:10:57.858Z,3.20
2023-05-21T04:11:57.877Z,3.40
2023-05-21T04:12:57.814Z,4.00
2023-05-21T04:13:57.826Z,3.40
2023-05-21T04:14:57.894Z,3.50
2023-05-21T04:15:58.000Z,3.20
2023-05-21T04:16:58.053Z,3.50
2023-05-21T04:17:58.075Z,3.30
2023-05-21T04:18:57.762Z,3.60
2023-05-21T04:19:58.134Z,3.20
2023-05-21T04:20:57.730Z,3.10
2023-05-21T04:21:58.129Z,3.00
2023-05-21T04:22:58.145Z,3.10
2023-05-21T04:23:58.030Z,3.30
2023-05-21T04:24:58.268Z,3.60
2023-05-21T04:25:58.304Z,3.40
2023-05-21T04:26:58.104Z,3.30
2023-05-21T04:27:57.664Z,3.10
2023-05-21T04:28:57.678Z,3.70
2023-05-21T04:29:57.702Z,3.40
2023-05-21T04:30:57.616Z,3.50
2023-05-21T04:31:57.736Z,4.40
2023-05-21T04:32:57.834Z,3.60
2023-05-21T04:33:57.603Z,4.00
2023-05-21T04:34:57.820Z,3.40
2023-05-21T04:35:57.989Z,4.20
2023-05-21T04:36:57.538Z,3.80
2023-05-21T04:37:57.563Z,4.40
2023-05-21T04:38:57.569Z,3.70
2023-05-21T04:39:57.964Z,3.40
2023-05-21T04:40:58.008Z,3.80
2023-05-21T04:41:57.529Z,3.90
2023-05-21T04:42:57.526Z,4.50
2023-05-21T04:43:58.099Z,3.60
2023-05-21T04:44:57.912Z,4.30
2023-05-21T04:45:57.475Z,3.60
2023-05-21T04:46:58.208Z,3.60
2023-05-21T04:47:58.242Z,3.70
2023-05-21T04:48:57.388Z,4.20
2023-05-21T04:49:58.241Z,3.50
2023-05-21T04:50:57.390Z,4.20
2023-05-21T04:51:57.382Z,3.90
2023-05-21T04:52:57.334Z,3.70
2023-05-21T04:53:57.381Z,4.00
2023-05-21T04:54:57.346Z,3.40
2023-05-21T04:55:57.357Z,3.20
2023-05-21T04:56:57.379Z,3.50
2023-05-21T04:57:57.320Z,4.20
2023-05-21T04:58:57.266Z,3.80
2023-05-21T04:59:57.349Z,4.10
2023-05-21T05:00:57.275Z,4.00
2023-05-21T05:01:57.252Z,4.30
2023-05-21T05:02:57.326Z,4.70
2023-05-21T05:03:57.468Z,4.00
2023-05-21T05:04:57.206Z,4.70
2023-05-21T05:05:57.216Z,3.90
2023-05-21T05:06:57.363Z,4.40
2023-05-21T05:07:57.214Z,3.90
2023-05-21T05:08:57.170Z,4.70
2023-05-21T05:09:57.171Z,4.40
2023-05-21T05:10:57.372Z,4.90
2023-05-21T05:11:57.180Z,4.50
2023-05-21T05:12:57.766Z,4.20
2023-05-21T05:13:57.130Z,4.10
2023-05-21T05:14:57.851Z,4.10
2023-05-21T05:15:57.461Z,4.50
2023-05-21T05:16:57.098Z,4.90
2023-05-21T05:17:57.176Z,4.40
2023-05-21T05:18:57.828Z,3.90
2023-05-21T05:19:57.064Z,4.00
2023-05-21T05:20:57.069Z,4.40
2023-05-21T05:21:57.022Z,4.40
2023-05-21T05:22:57.144Z,4.50
2023-05-21T05:23:57.046Z,4.30
2023-05-21T05:24:56.999Z,6.50
2023-05-21T05:25:56.998Z,4.90
2023-05-21T05:26:56.970Z,5.50
2023-05-21T05:27:57.257Z,5.00
2023-05-21T05:28:56.952Z,4.40
2023-05-21T05:29:56.968Z,4.40
2023-05-21T05:30:57.370Z,5.20
2023-05-21T05:31:56.914Z,5.70
2023-05-21T05:32:56.973Z,4.80
2023-05-21T05:33:56.911Z,5.40
2023-05-21T05:34:56.865Z,5.80
2023-05-21T05:35:56.875Z,4.70
2023-05-21T05:36:56.853Z,4.70
2023-05-21T05:37:56.849Z,5.40
2023-05-21T05:38:57.420Z,4.90
2023-05-21T05:39:56.834Z,5.00
2023-05-21T05:40:56.815Z,4.00
2023-05-21T05:41:56.811Z,4.20
2023-05-21T05:42:56.769Z,4.30
2023-05-21T05:43:56.800Z,5.30
2023-05-21T05:44:56.805Z,4.10
2023-05-21T05:45:56.845Z,4.30
2023-05-21T05:46:56.726Z,4.00
2023-05-21T05:47:57.086Z,5.00
2023-05-21T05:48:56.699Z,4.40
2023-05-21T05:49:56.741Z,4.60
2023-05-21T05:50:56.689Z,4.30
2023-05-21T05:51:56.704Z,5.10
2023-05-21T05:52:56.680Z,5.50
2023-05-21T05:53:56.680Z,4.90
2023-05-21T05:54:56.648Z,5.40
2023-05-21T05:55:56.635Z,5.00
2023-05-21T05:56:56.638Z,4.30
2023-05-21T05:57:56.641Z,5.50
2023-05-21T05:58:56.603Z,5.30
2023-05-21T05:59:56.765Z,5.10
2023-05-21T06:00:56.569Z,5.10
2023-05-21T06:01:56.584Z,4.60
2023-05-21T06:02:57.453Z,4.40
2023-05-21T06:03:56.588Z,4.00
2023-05-21T06:04:56.521Z,5.20
2023-05-21T06:05:56.592Z,5.50
2023-05-21T06:06:56.491Z,5.10
2023-05-21T06:07:57.425Z,4.80
2023-05-21T06:08:57.407Z,4.90
2023-05-21T06:09:56.481Z,4.50
2023-05-21T06:10:57.410Z,4.50
2023-05-21T06:11:56.474Z,3.70
2023-05-21T06:12:56.427Z,4.20
2023-05-21T06:13:56.441Z,4.00
2023-05-21T06:14:56.419Z,5.80
2023-05-21T06:15:56.441Z,4.40
2023-05-21T06:16:56.396Z,4.70
2023-05-21T06:17:56.407Z,3.80
2023-05-21T06:18:56.441Z,3.50
2023-05-21T06:19:56.409Z,3.70
2023-05-21T06:20:56.332Z,3.40
2023-05-21T06:21:56.331Z,3.60
2023-05-21T06:22:56.332Z,4.10
2023-05-21T06:23:56.324Z,3.40
2023-05-21T06:24:56.368Z,3.70
2023-05-21T06:25:56.323Z,3.90
2023-05-21T06:26:56.424Z,4.60
2023-05-21T06:27:56.290Z,3.40
2023-05-21T06:28:56.236Z,5.30
2023-05-21T06:29:56.255Z,3.90
2023-05-21T06:30:56.218Z,4.30
2023-05-21T06:31:56.436Z,4.30
2023-05-21T06:32:56.301Z,4.00
2023-05-21T06:33:56.330Z,3.60
2023-05-21T06:34:56.427Z,4.40
2023-05-21T06:35:56.207Z,4.30
2023-05-21T06:36:56.162Z,3.20
2023-05-21T06:37:56.156Z,3.40
2023-05-21T06:38:56.128Z,3.70
2023-05-21T06:39:56.137Z,3.20
2023-05-21T06:40:56.440Z,4.10
2023-05-21T06:41:56.107Z,3.90
2023-05-21T06:42:56.446Z,3.70
2023-05-21T06:43:56.106Z,4.00
2023-05-21T06:44:56.092Z,3.40
2023-05-21T06:45:56.092Z,3.90
2023-05-21T06:46:56.054Z,4.00
2023-05-21T06:47:56.051Z,3.30
2023-05-21T06:48:56.043Z,3.60
2023-05-21T06:49:56.015Z,3.20
2023-05-21T06:50:56.451Z,3.50
2023-05-21T06:51:55.982Z,3.60
2023-05-21T06:52:56.003Z,3.30
2023-05-21T06:53:55.951Z,3.00
2023-05-21T06:54:55.962Z,3.50
2023-05-21T06:55:56.449Z,3.80
2023-05-21T06:56:56.442Z,3.40
2023-05-21T06:57:55.938Z,3.60
2023-05-21T06:58:56.454Z,3.30
2023-05-21T06:59:56.456Z,3.90
2023-05-21T07:00:56.509Z,3.30
2023-05-21T07:01:55.916Z,3.30
2023-05-21T07:02:55.970Z,3.30
2023-05-21T07:03:55.914Z,4.20
2023-05-21T07:04:55.939Z,4.10
2023-05-21T07:05:55.815Z,5.30
2023-05-21T07:06:55.848Z,3.90
2023-05-21T07:07:55.779Z,3.40
2023-05-21T07:08:55.793Z,4.00
2023-05-21T07:09:55.809Z,3.60
2023-05-21T07:10:55.780Z,3.40
2023-05-21T07:11:55.812Z,3.70
2023-05-21T07:12:55.948Z,3.80
2023-05-21T07:13:55.742Z,2.90
2023-05-21T07:14:57.563Z,3.00
2023-05-21T07:15:55.698Z,3.00
2023-05-21T07:16:55.752Z,3.80
2023-05-21T07:17:55.726Z,3.30
2023-05-21T07:18:55.785Z,3.10
2023-05-21T07:19:56.317Z,3.60
2023-05-21T07:20:56.354Z,3.60
2023-05-21T07:21:55.648Z,3.40
2023-05-21T07:22:55.652Z,3.50
2023-05-21T07:23:55.639Z,3.60
2023-05-21T07:24:56.457Z,3.10
2023-05-21T07:25:55.584Z,2.90
2023-05-21T07:26:55.599Z,3.50
2023-05-21T07:27:55.578Z,3.60
2023-05-21T07:28:56.483Z,3.50
2023-05-21T07:29:55.563Z,3.90
2023-05-21T07:30:56.456Z,3.30
2023-05-21T07:31:56.308Z,3.30
2023-05-21T07:32:55.605Z,3.10
2023-05-21T07:33:55.484Z,3.00
2023-05-21T07:34:55.501Z,4.40
2023-05-21T07:35:55.481Z,3.40
2023-05-21T07:36:55.510Z,3.50
2023-05-21T07:37:55.448Z,3.30
2023-05-21T07:38:55.460Z,2.60
2023-05-21T07:39:55.442Z,3.40
2023-05-21T07:40:55.433Z,3.10
2023-05-21T07:41:55.404Z,2.90
2023-05-21T07:42:55.436Z,3.60
2023-05-21T07:43:55.390Z,3.10
2023-05-21T07:44:55.496Z,3.80
2023-05-21T07:45:55.367Z,3.50
2023-05-21T07:46:55.484Z,3.70
2023-05-21T07:47:55.370Z,3.60
2023-05-21T07:48:55.350Z,2.90
2023-05-21T07:49:55.343Z,3.10
2023-05-21T07:50:55.313Z,3.70
2023-05-21T07:51:55.334Z,4.30
2023-05-21T07:52:55.391Z,3.50
2023-05-21T07:53:55.563Z,3.10
2023-05-21T07:54:55.324Z,3.00
2023-05-21T07:55:55.250Z,3.50
2023-05-21T07:56:55.277Z,3.10
2023-05-21T07:57:55.217Z,2.80
2023-05-21T07:58:55.234Z,2.90
2023-05-21T07:59:55.213Z,3.20
2023-05-21T08:00:55.458Z,3.10
2023-05-21T08:01:55.190Z,2.80
2023-05-21T08:02:55.316Z,2.90
2023-05-21T08:03:55.288Z,3.00
2023-05-21T08:04:55.316Z,3.70
2023-05-21T08:05:55.138Z,4.20
2023-05-21T08:06:55.142Z,3.20
2023-05-21T08:07:55.130Z,2.90
2023-05-21T08:08:55.114Z,2.80
2023-05-21T08:09:55.111Z,3.10
2023-05-21T08:10:55.508Z,2.90
2023-05-21T08:11:55.083Z,3.60
2023-05-21T08:12:55.056Z,2.90
2023-05-21T08:13:55.064Z,4.70
2023-05-21T08:14:55.032Z,3.30
2023-05-21T08:15:55.093Z,3.60
2023-05-21T08:16:55.514Z,3.10
2023-05-21T08:17:55.047Z,4.00
2023-05-21T08:18:55.028Z,3.00
2023-05-21T08:19:54.973Z,3.30
2023-05-21T08:20:55.023Z,3.20
2023-05-21T08:21:54.992Z,3.40
2023-05-21T08:22:54.979Z,4.30
2023-05-21T08:23:54.931Z,3.30
2023-05-21T08:24:55.325Z,3.40
2023-05-21T08:25:55.516Z,3.50
2023-05-21T08:26:54.912Z,4.10
2023-05-21T08:27:54.882Z,3.90
2023-05-21T08:28:54.899Z,4.30
2023-05-21T08:29:54.851Z,3.50
2023-05-21T08:30:54.955Z,3.50
2023-05-21T08:31:54.908Z,3.60
2023-05-21T08:32:55.181Z,3.90
2023-05-21T08:33:54.816Z,3.10
2023-05-21T08:34:54.856Z,3.90
2023-05-21T08:35:54.800Z,4.20
2023-05-21T08:36:54.829Z,4.60
2023-05-21T08:37:54.802Z,3.60
2023-05-21T08:38:54.766Z,3.20
2023-05-21T08:39:54.740Z,3.50
2023-05-21T08:40:55.333Z,3.50
2023-05-21T08:41:55.129Z,3.60
2023-05-21T08:42:55.114Z,3.80
2023-05-21T08:43:55.012Z,3.50
2023-05-21T08:44:54.700Z,3.30
2023-05-21T08:45:54.722Z,2.90
2023-05-21T08:46:54.690Z,3.20
2023-05-21T08:47:54.706Z,3.10
2023-05-21T08:48:54.651Z,3.20
2023-05-21T08:49:54.675Z,3.80
2023-05-21T08:50:54.655Z,3.60
2023-05-21T08:51:54.604Z,3.20
2023-05-21T08:52:54.623Z,3.00
2023-05-21T08:53:54.582Z,3.10
2023-05-21T08:54:54.644Z,3.60
2023-05-21T08:55:54.556Z,3.50
2023-05-21T08:56:54.569Z,3.50
2023-05-21T08:57:54.566Z,3.70
2023-05-21T08:58:54.566Z,3.10
2023-05-21T08:59:54.535Z,3.00
2023-05-21T09:00:54.531Z,2.90
2023-05-21T09:01:54.507Z,3.10
2023-05-21T09:02:54.772Z,3.20
2023-05-21T09:03:59.073Z,2.60
2023-05-21T09:04:55.474Z,2.90
2023-05-21T09:05:54.549Z,3.00
2023-05-21T09:06:54.570Z,3.20
2023-05-21T09:07:54.546Z,2.90
2023-05-21T09:08:54.420Z,3.00
2023-05-21T09:09:54.397Z,3.40
2023-05-21T09:10:54.434Z,3.10
2023-05-21T09:11:54.407Z,4.50
2023-05-21T09:12:54.395Z,3.50
2023-05-21T09:13:54.366Z,3.20
2023-05-21T09:14:54.375Z,3.30
2023-05-21T09:15:54.460Z,3.00
2023-05-21T09:16:54.369Z,3.10
2023-05-21T09:17:54.341Z,3.20
2023-05-21T09:18:54.372Z,3.70
2023-05-21T09:19:54.279Z,3.10
2023-05-21T09:20:54.298Z,2.80
2023-05-21T09:21:54.284Z,3.00
2023-05-21T09:22:54.265Z,3.10
2023-05-21T09:23:54.262Z,2.80
2023-05-21T09:24:54.250Z,3.40
2023-05-21T09:25:54.227Z,2.90
2023-05-21T09:26:54.569Z,3.10
2023-05-21T09:27:54.217Z,3.10
2023-05-21T09:28:54.230Z,3.70
2023-05-21T09:29:54.174Z,3.30
2023-05-21T09:30:54.344Z,3.00
2023-05-21T09:31:54.227Z,2.60
2023-05-21T09:32:54.212Z,2.90
2023-05-21T09:33:54.132Z,3.20
2023-05-21T09:34:54.512Z,4.10
2023-05-21T09:35:54.127Z,3.00
2023-05-21T09:36:54.122Z,2.70
2023-05-21T09:37:54.085Z,2.60
2023-05-21T09:38:54.109Z,3.50
2023-05-21T09:39:54.101Z,2.80
2023-05-21T09:40:54.094Z,2.70
2023-05-21T09:41:54.057Z,3.30
2023-05-21T09:42:54.054Z,2.80
2023-05-21T09:43:54.037Z,4.00
2023-05-21T09:44:54.058Z,2.80
2023-05-21T09:45:54.130Z,2.90
2023-05-21T09:46:54.075Z,2.50
2023-05-21T09:47:54.038Z,3.30
2023-05-21T09:48:53.998Z,3.00
2023-05-21T09:49:53.970Z,3.00
2023-05-21T09:50:53.963Z,3.00
2023-05-21T09:51:53.967Z,3.20
2023-05-21T09:52:53.932Z,3.00
2023-05-21T09:53:53.924Z,3.50
2023-05-21T09:54:53.935Z,4.10
2023-05-21T09:55:53.880Z,3.50
2023-05-21T09:56:53.903Z,3.30
2023-05-21T09:57:53.874Z,3.60
2023-05-21T09:58:53.860Z,3.20
2023-05-21T09:59:53.861Z,3.50
2023-05-21T10:00:53.850Z,3.00
2023-05-21T10:01:53.821Z,3.00
2023-05-21T10:02:53.908Z,3.50
2023-05-21T10:03:53.901Z,3.40
2023-05-21T10:04:53.881Z,3.90
2023-05-21T10:05:53.794Z,3.30
2023-05-21T10:06:54.074Z,3.20
2023-05-21T10:07:53.747Z,2.80
2023-05-21T10:08:53.758Z,3.10
2023-05-21T10:09:54.677Z,3.20
2023-05-21T10:10:53.757Z,2.90
2023-05-21T10:11:53.689Z,3.40
2023-05-21T10:12:53.704Z,3.50
2023-05-21T10:13:53.678Z,3.40
2023-05-21T10:14:53.709Z,3.60
2023-05-21T10:15:53.724Z,3.20
2023-05-21T10:16:53.657Z,2.80
2023-05-21T10:17:54.728Z,2.80
2023-05-21T10:18:53.673Z,3.00
2023-05-21T10:19:53.608Z,3.60
2023-05-21T10:20:53.683Z,4.60
2023-05-21T10:21:53.581Z,3.40
2023-05-21T10:22:53.622Z,3.20
2023-05-21T10:23:53.560Z,3.80
2023-05-21T10:24:53.603Z,3.40
2023-05-21T10:25:53.788Z,3.00
2023-05-21T10:26:53.563Z,3.30
2023-05-21T10:27:53.537Z,3.40
2023-05-21T10:28:53.522Z,4.00
2023-05-21T10:29:53.513Z,4.00
2023-05-21T10:30:53.518Z,3.30
2023-05-21T10:31:53.537Z,3.00
2023-05-21T10:32:53.636Z,2.80
2023-05-21T10:33:53.588Z,2.90
2023-05-21T10:34:53.468Z,3.20
2023-05-21T10:35:53.515Z,2.90
2023-05-21T10:36:53.436Z,2.60
2023-05-21T10:37:53.435Z,2.80
2023-05-21T10:38:53.648Z,4.00
2023-05-21T10:39:53.392Z,2.80
2023-05-21T10:40:53.391Z,2.90
2023-05-21T10:41:54.427Z,2.90
2023-05-21T10:42:53.381Z,3.00
2023-05-21T10:43:53.638Z,3.50
2023-05-21T10:44:53.343Z,3.00
2023-05-21T10:45:53.461Z,3.80
2023-05-21T10:46:53.645Z,2.80
2023-05-21T10:47:54.473Z,3.20
2023-05-21T10:48:53.638Z,2.90
2023-05-21T10:49:53.305Z,3.10
2023-05-21T10:50:53.267Z,4.30
2023-05-21T10:51:53.237Z,4.40
2023-05-21T10:52:53.271Z,3.60
2023-05-21T10:53:53.226Z,3.20
2023-05-21T10:54:53.534Z,3.70
2023-05-21T10:55:53.246Z,3.50
2023-05-21T10:56:53.195Z,4.10
2023-05-21T10:57:53.400Z,3.40
2023-05-21T10:58:53.184Z,3.20
2023-05-21T10:59:53.174Z,3.60
2023-05-21T11:00:53.184Z,5.00
2023-05-21T11:01:53.249Z,3.20
2023-05-21T11:02:53.708Z,2.90
2023-05-21T11:03:53.178Z,3.20
2023-05-21T11:04:53.121Z,3.10
2023-05-21T11:05:53.146Z,3.10
2023-05-21T11:06:53.078Z,2.70
2023-05-21T11:07:53.139Z,2.90
2023-05-21T11:08:55.122Z,3.40
2023-05-21T11:09:53.664Z,3.40
2023-05-21T11:10:53.282Z,2.90
2023-05-21T11:11:53.036Z,2.80
2023-05-21T11:12:53.029Z,2.90
2023-05-21T11:13:53.109Z,2.80
2023-05-21T11:14:52.998Z,2.80
2023-05-21T11:15:52.992Z,2.90
2023-05-21T11:16:53.955Z,3.10
2023-05-21T11:17:53.013Z,3.50
2023-05-21T11:18:53.251Z,3.10
2023-05-21T11:19:52.970Z,3.10
2023-05-21T11:20:52.917Z,3.00
2023-05-21T11:21:53.345Z,3.20
2023-05-21T11:22:52.890Z,3.90
2023-05-21T11:23:52.917Z,3.50
2023-05-21T11:24:52.867Z,3.20
2023-05-21T11:25:52.869Z,3.60
2023-05-21T11:26:52.873Z,3.50
2023-05-21T11:27:52.876Z,3.10
2023-05-21T11:28:52.842Z,3.40
2023-05-21T11:29:53.077Z,3.40
2023-05-21T11:30:52.794Z,3.40
2023-05-21T11:31:52.972Z,3.30
2023-05-21T11:32:52.800Z,3.30
2023-05-21T11:33:52.790Z,3.20
2023-05-21T11:34:52.793Z,3.30
2023-05-21T11:35:52.792Z,3.40
2023-05-21T11:36:52.732Z,3.40
2023-05-21T11:37:53.409Z,3.50
2023-05-21T11:38:52.720Z,4.30
2023-05-21T11:39:52.752Z,3.60
2023-05-21T11:40:52.681Z,3.40
2023-05-21T11:41:52.756Z,3.50
2023-05-21T11:42:52.696Z,4.00
2023-05-21T11:43:52.664Z,3.80
2023-05-21T11:44:52.652Z,3.70
2023-05-21T11:45:52.700Z,4.30
2023-05-21T11:46:52.779Z,4.60
2023-05-21T11:47:52.783Z,3.60
2023-05-21T11:48:52.586Z,3.10
2023-05-21T11:49:52.590Z,3.30
2023-05-21T11:50:52.679Z,3.80
2023-05-21T11:51:52.565Z,3.50
2023-05-21T11:52:52.546Z,3.30
2023-05-21T11:53:52.544Z,3.30
2023-05-21T11:54:52.518Z,4.10
2023-05-21T11:55:52.548Z,3.30
2023-05-21T11:56:52.499Z,3.30
2023-05-21T11:57:52.563Z,3.20
2023-05-21T11:58:52.485Z,3.90
2023-05-21T11:59:52.488Z,3.80
2023-05-21T12:00:52.496Z,3.50
2023-05-21T12:01:52.454Z,3.90
2023-05-21T12:02:52.580Z,3.60
2023-05-21T12:03:52.532Z,3.40
2023-05-21T12:04:52.433Z,3.10
2023-05-21T12:05:52.461Z,3.00
2023-05-21T12:06:52.393Z,3.40
2023-05-21T12:07:52.531Z,3.40
2023-05-21T12:08:52.400Z,3.80
2023-05-21T12:09:52.716Z,3.30
2023-05-21T12:10:52.362Z,3.30
2023-05-21T12:11:52.353Z,3.60
2023-05-21T12:12:55.481Z,3.10
2023-05-21T12:13:52.342Z,3.30
2023-05-21T12:14:52.280Z,3.40
2023-05-21T12:15:52.318Z,3.10
2023-05-21T12:16:52.375Z,3.60
2023-05-21T12:17:52.349Z,3.20
2023-05-21T12:18:52.282Z,2.90
2023-05-21T12:19:52.263Z,3.10
2023-05-21T12:20:52.336Z,2.80
2023-05-21T12:21:52.270Z,3.10
2023-05-21T12:22:52.200Z,3.20
2023-05-21T12:23:52.226Z,3.10
2023-05-21T12:24:52.193Z,2.90
2023-05-21T12:25:52.215Z,3.50
2023-05-21T12:26:52.173Z,3.50
2023-05-21T12:27:52.167Z,3.50
2023-05-21T12:28:52.129Z,3.40
2023-05-21T12:29:52.137Z,3.20
2023-05-21T12:30:52.150Z,3.40
2023-05-21T12:31:52.138Z,3.10
2023-05-21T12:32:52.121Z,3.50
2023-05-21T12:33:52.127Z,3.40
2023-05-21T12:34:52.062Z,3.50
2023-05-21T12:35:52.126Z,3.40
2023-05-21T12:36:52.056Z,3.30
2023-05-21T12:37:52.137Z,3.20
2023-05-21T12:38:52.035Z,3.20
2023-05-21T12:39:52.020Z,3.00
2023-05-21T12:40:52.000Z,2.60
2023-05-21T12:41:51.992Z,3.50
2023-05-21T12:42:52.092Z,3.30
2023-05-21T12:43:51.985Z,3.20
2023-05-21T12:44:51.946Z,3.20
2023-05-21T12:45:52.025Z,3.30
2023-05-21T12:46:51.930Z,3.30
2023-05-21T12:47:51.942Z,3.40
2023-05-21T12:48:51.946Z,3.20
2023-05-21T12:49:54.772Z,3.20
2023-05-21T12:50:51.921Z,3.30
2023-05-21T12:51:51.904Z,2.70
2023-05-21T12:52:51.847Z,3.10
2023-05-21T12:53:51.878Z,3.90
2023-05-21T12:54:51.866Z,3.50
2023-05-21T12:55:51.856Z,3.40
2023-05-21T12:56:51.806Z,3.30
2023-05-21T12:57:51.839Z,3.40
2023-05-21T12:58:51.824Z,2.90
2023-05-21T12:59:51.787Z,3.40
2023-05-21T13:00:51.782Z,3.40
2023-05-21T13:01:51.786Z,3.30
2023-05-21T13:02:51.774Z,3.30
2023-05-21T13:03:51.844Z,3.60
2023-05-21T13:04:51.716Z,3.20
2023-05-21T13:05:51.754Z,3.20
2023-05-21T13:06:51.724Z,3.60
2023-05-21T13:07:51.711Z,3.40
2023-05-21T13:08:51.695Z,3.30
2023-05-21T13:09:51.681Z,3.30
2023-05-21T13:10:51.689Z,3.40
2023-05-21T13:11:51.650Z,3.70
2023-05-21T13:12:51.630Z,3.30
2023-05-21T13:13:51.750Z,3.30
2023-05-21T13:14:51.748Z,3.90
2023-05-21T13:15:51.607Z,3.70
2023-05-21T13:16:51.584Z,3.70
2023-05-21T13:17:53.692Z,3.50